Time;durP1;ratioP1;P1;durP2;ratioP2;P2;SDS_P1;SDS_P2;PMS_P1;PMS_P2;Temp;Humidity;BMP_temperature;BMP_pressure;BME280_temperature;BME280_humidity;BME280_pressure;Samples;Min_cycle;Max_cycle;Signal;HPM_P1;HPM_P2
2022/07/21 00:01:50;;;;;;;;;;;;;;;;;;5162624;27;19915;-82
2022/07/21 00:04:15;;;;;;;;;;;;;;;;;;5163412;27;20019;-82
2022/07/21 00:06:41;;;;;;;;;;;;;;;;;;5159267;27;19919;-81
2022/07/21 00:09:06;;;;;;;;;;;;;;;;;;5157700;27;19958;-81
2022/07/21 00:11:32;;;;;;;;;;;;;;;;;;5159044;27;19915;-81
2022/07/21 00:13:59;;;;;;;;;;;;;;;;;;5158826;27;19979;-81
2022/07/21 00:16:24;;;;;;;;;;;;;;;;;;5159045;27;20930;-81
2022/07/21 00:18:49;;;;;;;;;;;;;;;;;;5157790;27;19921;-82
2022/07/21 00:21:15;;;;;;;;;;;;;;;;;;5157420;27;20244;-82
2022/07/21 00:23:40;;;;;;;;;;;;;;;;;;5160598;27;19950;-81
2022/07/21 00:26:05;;;;;;;;;;;;;;;;;;5162241;27;20009;-83
2022/07/21 00:28:31;;;;;;;;;;;;;;;;;;5158549;27;19913;-82
2022/07/21 00:30:56;;;;;;;;;;;;;;;;;;5157289;27;20002;-83
2022/07/21 00:33:21;;;;;;;;;;;;;;;;;;5158493;27;19915;-82
2022/07/21 00:35:47;;;;;;;;;;;;;;;;;;5158815;27;19911;-83
2022/07/21 00:38:13;;;;;;;;;;;;;;;;;;5158491;27;19923;-82
2022/07/21 00:40:38;;;;;;;;;;;;;;;;;;5158629;27;19915;-81
2022/07/21 00:43:03;;;;;;;;;;;;;;;;;;5158499;27;20823;-83
2022/07/21 00:45:29;;;;;;;;;;;;;;;;;;5165299;27;19922;-82
2022/07/21 00:47:54;;;;;;;;;;;;;;;;;;5157619;27;19911;-81
2022/07/21 00:50:20;;;;;;;;;;;;;;;;;;5157498;27;19915;-81
2022/07/21 00:52:45;;;;;;;;;;;;;;;;;;5157092;27;19915;-83
2022/07/21 00:55:12;;;;;;;;;;;;;;;;;;5157917;27;19926;-83
2022/07/21 00:57:37;;;;;;;;;;;;;;;;;;5139614;27;19915;-82
2022/07/21 01:00:04;;;;;;;;;;;;;;;;;;5139904;27;19915;-81
2022/07/21 01:02:31;;;;;;;;;;;;;;;;;;5156892;27;19911;-82
2022/07/21 01:04:57;;;;;;;;;;;;;;;;;;5158556;27;19971;-82
2022/07/21 01:07:22;;;;;;;;;;;;;;;;;;5160457;27;20210;-81
2022/07/21 01:09:47;;;;;;;;;;;;;;;;;;5157742;27;19957;-82
2022/07/21 01:12:13;;;;;;;;;;;;;;;;;;5157999;27;19915;-82
2022/07/21 01:14:38;;;;;;;;;;;;;;;;;;5156412;27;19911;-82
2022/07/21 01:17:03;;;;;;;;;;;;;;;;;;5157785;27;19999;-82
2022/07/21 01:19:29;;;;;;;;;;;;;;;;;;5156363;27;20056;-82
2022/07/21 01:21:54;;;;;;;;;;;;;;;;;;5157698;27;19971;-82
2022/07/21 01:24:20;;;;;;;;;;;;;;;;;;5157662;27;19915;-81
2022/07/21 01:26:49;;;;;;;;;;;;;;;;;;5161750;27;19915;-83
2022/07/21 01:29:15;;;;;;;;;;;;;;;;;;5158256;27;19997;-81
2022/07/21 01:31:40;;;;;;;;;;;;;;;;;;5157560;27;20332;-82
2022/07/21 01:34:06;;;;;;;;;;;;;;;;;;5157922;27;19915;-81
2022/07/21 01:36:31;;;;;;;;;;;;;;;;;;5156328;27;19936;-82
2022/07/21 01:41:41;;;;;;;;;;;;;;;;;;5156093;27;19930;-82
2022/07/21 01:44:07;;;;;;;;;;;;;;;;;;5157349;27;19915;-82
2022/07/21 01:46:36;;;;;;;;;;;;;;;;;;5156099;27;19946;-83
2022/07/21 01:49:01;;;;;;;;;;;;;;;;;;5164017;27;19915;-82
2022/07/21 01:51:26;;;;;;;;;;;;;;;;;;5157132;27;20296;-83
2022/07/21 01:53:52;;;;;;;;;;;;;;;;;;5156803;27;19919;-82
2022/07/21 01:56:21;;;;;;;;;;;;;;;;;;5157117;27;19963;-83
2022/07/21 01:58:46;;;;;;;;;;;;;;;;;;5156548;27;20288;-82
2022/07/21 02:01:12;;;;;;;;;;;;;;;;;;5156767;27;20002;-82
2022/07/21 02:03:37;;;;;;;;;;;;;;;;;;5156687;27;19945;-83
2022/07/21 02:06:03;;;;;;;;;;;;;;;;;;5138409;27;20064;-82
2022/07/21 02:08:28;;;;;;;;;;;;;;;;;;5141057;27;19915;-82
2022/07/21 02:10:53;;;;;;;;;;;;;;;;;;5158473;27;19915;-82
2022/07/21 02:13:19;;;;;;;;;;;;;;;;;;5155278;27;19921;-82
2022/07/21 02:15:44;;;;;;;;;;;;;;;;;;5155775;27;19968;-82
2022/07/21 02:18:10;;;;;;;;;;;;;;;;;;5156667;27;19919;-82
2022/07/21 02:20:35;;;;;;;;;;;;;;;;;;5157240;27;19944;-82
2022/07/21 02:23:00;;;;;;;;;;;;;;;;;;5156424;27;19911;-82
2022/07/21 02:25:26;;;;;;;;;;;;;;;;;;5156381;27;19915;-82
2022/07/21 02:27:51;;;;;;;;;;;;;;;;;;5156917;27;19915;-81
2022/07/21 02:30:16;;;;;;;;;;;;;;;;;;5156687;27;20264;-82
2022/07/21 02:32:42;;;;;;;;;;;;;;;;;;5156627;27;19922;-81
2022/07/21 02:35:07;;;;;;;;;;;;;;;;;;5155666;27;19912;-81
2022/07/21 02:37:33;;;;;;;;;;;;;;;;;;5156046;27;19915;-81
2022/07/21 02:39:58;;;;;;;;;;;;;;;;;;5156762;27;19915;-81
2022/07/21 02:42:23;;;;;;;;;;;;;;;;;;5156490;27;20277;-81
2022/07/21 02:44:49;;;;;;;;;;;;;;;;;;5156314;27;19961;-81
2022/07/21 02:47:14;;;;;;;;;;;;;;;;;;5156188;27;20341;-82
2022/07/21 02:49:39;;;;;;;;;;;;;;;;;;5156405;27;19918;-82
2022/07/21 02:52:05;;;;;;;;;;;;;;;;;;5159207;27;19922;-83
2022/07/21 02:54:30;;;;;;;;;;;;;;;;;;5154654;27;19954;-82
2022/07/21 02:56:55;;;;;;;;;;;;;;;;;;5156211;27;19915;-82
2022/07/21 02:59:21;;;;;;;;;;;;;;;;;;5154768;27;19915;-81
2022/07/21 03:01:46;;;;;;;;;;;;;;;;;;5154748;27;19944;-83
2022/07/21 03:04:11;;;;;;;;;;;;;;;;;;5137349;27;19915;-82
2022/07/21 03:06:37;;;;;;;;;;;;;;;;;;5155639;27;19938;-82
2022/07/21 03:09:03;;;;;;;;;;;;;;;;;;5156469;27;19923;-81
2022/07/21 03:11:28;;;;;;;;;;;;;;;;;;5163046;27;20332;-82
2022/07/21 03:13:53;;;;;;;;;;;;;;;;;;5141523;27;19937;-82
2022/07/21 03:16:19;;;;;;;;;;;;;;;;;;5160224;27;20294;-82
2022/07/21 03:18:44;;;;;;;;;;;;;;;;;;5160213;27;19915;-82
2022/07/21 03:21:09;;;;;;;;;;;;;;;;;;5159579;27;19937;-82
2022/07/21 03:23:35;;;;;;;;;;;;;;;;;;5160110;27;19962;-82
2022/07/21 03:26:00;;;;;;;;;;;;;;;;;;5158840;27;19915;-81
2022/07/21 03:28:25;;;;;;;;;;;;;;;;;;5159757;27;19940;-82
2022/07/21 03:30:51;;;;;;;;;;;;;;;;;;5160803;27;19922;-81
2022/07/21 03:33:16;;;;;;;;;;;;;;;;;;5163057;27;20332;-83
2022/07/21 03:35:42;;;;;;;;;;;;;;;;;;5159700;27;20263;-82
2022/07/21 03:38:07;;;;;;;;;;;;;;;;;;5160109;27;20243;-83
2022/07/21 03:40:33;;;;;;;;;;;;;;;;;;5141574;27;19915;-83
2022/07/21 03:42:59;;;;;;;;;;;;;;;;;;5159546;27;19915;-82
2022/07/21 03:45:24;;;;;;;;;;;;;;;;;;5141086;27;19915;-82
2022/07/21 03:47:50;;;;;;;;;;;;;;;;;;5159629;27;20011;-82
2022/07/21 03:50:17;;;;;;;;;;;;;;;;;;5159663;27;19922;-82
2022/07/21 03:52:42;;;;;;;;;;;;;;;;;;5164617;27;20010;-81
2022/07/21 03:55:08;;;;;;;;;;;;;;;;;;5159850;27;19954;-83
2022/07/21 03:57:37;;;;;;;;;;;;;;;;;;5159459;27;19997;-83
2022/07/21 04:00:03;;;;;;;;;;;;;;;;;;5157977;27;19983;-82
2022/07/21 04:02:28;;;;;;;;;;;;;;;;;;5158372;27;20320;-82
2022/07/21 04:04:54;;;;;;;;;;;;;;;;;;5159123;27;19915;-83
2022/07/21 04:07:19;;;;;;;;;;;;;;;;;;5156930;27;19927;-82
2022/07/21 04:09:45;;;;;;;;;;;;;;;;;;5159300;27;20071;-82
2022/07/21 04:12:10;;;;;;;;;;;;;;;;;;5159757;27;19997;-82
2022/07/21 04:14:35;;;;;;;;;;;;;;;;;;5164105;27;20415;-82
2022/07/21 04:17:00;;;;;;;;;;;;;;;;;;5159389;27;19915;-83
2022/07/21 04:19:26;;;;;;;;;;;;;;;;;;5159024;27;19915;-82
2022/07/21 04:21:51;;;;;;;;;;;;;;;;;;5158709;27;19916;-81
2022/07/21 04:24:16;;;;;;;;;;;;;;;;;;5158603;27;20319;-82
2022/07/21 04:26:42;;;;;;;;;;;;;;;;;;5157288;27;20002;-81
2022/07/21 04:29:07;;;;;;;;;;;;;;;;;;5158555;27;20322;-82
2022/07/21 04:31:32;;;;;;;;;;;;;;;;;;5158807;27;19922;-82
2022/07/21 04:33:58;;;;;;;;;;;;;;;;;;5161678;27;19974;-82
2022/07/21 04:36:23;;;;;;;;;;;;;;;;;;5160204;27;19959;-82
2022/07/21 04:38:48;;;;;;;;;;;;;;;;;;5159282;27;20005;-82
2022/07/21 04:41:14;;;;;;;;;;;;;;;;;;5158270;27;19915;-81
2022/07/21 04:43:39;;;;;;;;;;;;;;;;;;5157427;27;19915;-80
2022/07/21 04:46:04;;;;;;;;;;;;;;;;;;5158526;27;19915;-81
2022/07/21 04:48:30;;;;;;;;;;;;;;;;;;5156726;27;19915;-83
2022/07/21 04:50:55;;;;;;;;;;;;;;;;;;5158362;27;19950;-81
2022/07/21 04:53:20;;;;;;;;;;;;;;;;;;5159689;27;20321;-81
2022/07/21 04:55:45;;;;;;;;;;;;;;;;;;5162929;27;19922;-80
2022/07/21 04:58:11;;;;;;;;;;;;;;;;;;5158250;27;19915;-82
2022/07/21 05:00:36;;;;;;;;;;;;;;;;;;5157952;27;19915;-81
2022/07/21 05:03:01;;;;;;;;;;;;;;;;;;5157958;27;20312;-82
2022/07/21 05:05:27;;;;;;;;;;;;;;;;;;5160199;27;20256;-82
2022/07/21 05:07:52;;;;;;;;;;;;;;;;;;5159799;27;19915;-84
2022/07/21 05:10:18;;;;;;;;;;;;;;;;;;5159506;27;19939;-83
2022/07/21 05:12:43;;;;;;;;;;;;;;;;;;5161700;27;19922;-83
2022/07/21 05:15:11;;;;;;;;;;;;;;;;;;5164803;27;19921;-82
2022/07/21 05:17:36;;;;;;;;;;;;;;;;;;5167653;27;20017;-83
2022/07/21 05:20:02;;;;;;;;;;;;;;;;;;5160594;27;19977;-84
2022/07/21 05:22:27;;;;;;;;;;;;;;;;;;5158533;27;19922;-84
2022/07/21 05:24:52;;;;;;;;;;;;;;;;;;5160085;27;19915;-82
2022/07/21 05:27:18;;;;;;;;;;;;;;;;;;5159728;27;19922;-83
2022/07/21 05:29:43;;;;;;;;;;;;;;;;;;5160775;27;19915;-82
2022/07/21 05:32:08;;;;;;;;;;;;;;;;;;5160350;27;19923;-83
2022/07/21 05:34:34;;;;;;;;;;;;;;;;;;5161455;27;20297;-84
2022/07/21 05:36:59;;;;;;;;;;;;;;;;;;5166468;27;20320;-83
2022/07/21 05:39:24;;;;;;;;;;;;;;;;;;5163855;27;19915;-84
2022/07/21 05:41:50;;;;;;;;;;;;;;;;;;5160367;27;19915;-84
2022/07/21 05:44:15;;;;;;;;;;;;;;;;;;5158831;27;19953;-82
2022/07/21 05:46:40;;;;;;;;;;;;;;;;;;5160269;27;19919;-83
2022/07/21 05:49:06;;;;;;;;;;;;;;;;;;5161621;27;19911;-83
2022/07/21 05:51:31;;;;;;;;;;;;;;;;;;5162538;27;19921;-82
2022/07/21 05:53:56;;;;;;;;;;;;;;;;;;5161081;27;19923;-82
2022/07/21 05:56:22;;;;;;;;;;;;;;;;;;5163699;27;19915;-84
2022/07/21 05:58:47;;;;;;;;;;;;;;;;;;5170752;27;19915;-83
2022/07/21 06:01:12;;;;;;;;;;;;;;;;;;5162499;27;20052;-83
2022/07/21 06:03:42;;;;;;;;;;;;;;;;;;5160481;27;19915;-83
2022/07/21 06:06:08;;;;;;;;;;;;;;;;;;5161984;27;19922;-83
2022/07/21 06:08:35;;;;;;;;;;;;;;;;;;5160471;27;19911;-84
2022/07/21 06:11:00;;;;;;;;;;;;;;;;;;5159489;27;19915;-83
2022/07/21 06:13:26;;;;;;;;;;;;;;;;;;5159954;27;19915;-83
2022/07/21 06:15:51;;;;;;;;;;;;;;;;;;5160791;27;19975;-83
2022/07/21 06:18:16;;;;;;;;;;;;;;;;;;5164357;27;19921;-83
2022/07/21 06:20:42;;;;;;;;;;;;;;;;;;5165147;27;20316;-84
2022/07/21 06:23:07;;;;;;;;;;;;;;;;;;5161724;27;19915;-84
2022/07/21 06:25:32;;;;;;;;;;;;;;;;;;5160102;27;20007;-82
2022/07/21 06:27:58;;;;;;;;;;;;;;;;;;5158299;27;20457;-84
2022/07/21 06:30:26;;;;;;;;;;;;;;;;;;5157592;27;19915;-84
2022/07/21 06:32:51;;;;;;;;;;;;;;;;;;5157970;27;19915;-83
2022/07/21 06:35:18;;;;;;;;;;;;;;;;;;5158213;27;19941;-83
2022/07/21 06:37:46;;;;;;;;;;;;;;;;;;5158710;27;20006;-83
2022/07/21 06:40:11;;;;;;;;;;;;;;;;;;5164518;27;19926;-83
2022/07/21 06:42:37;;;;;;;;;;;;;;;;;;5159126;27;20390;-83
2022/07/21 06:45:02;;;;;;;;;;;;;;;;;;5158887;27;19915;-84
2022/07/21 06:47:28;;;;;;;;;;;;;;;;;;5156948;27;20359;-84
2022/07/21 06:49:53;;;;;;;;;;;;;;;;;;5157853;27;19921;-84
2022/07/21 06:52:18;;;;;;;;;;;;;;;;;;5156964;27;19941;-83
2022/07/21 06:54:44;;;;;;;;;;;;;;;;;;5157109;27;19922;-83
2022/07/21 06:57:09;;;;;;;;;;;;;;;;;;5157816;27;19919;-83
2022/07/21 06:59:35;;;;;;;;;;;;;;;;;;5159121;27;19911;-82
2022/07/21 07:02:00;;;;;;;;;;;;;;;;;;5165563;27;19922;-82
2022/07/21 07:04:27;;;;;;;;;;;;;;;;;;5157973;27;19916;-82
2022/07/21 07:06:54;;;;;;;;;;;;;;;;;;5156146;27;20256;-83
2022/07/21 07:09:20;;;;;;;;;;;;;;;;;;5157989;27;19915;-82
2022/07/21 07:11:46;;;;;;;;;;;;;;;;;;5159598;27;19915;-83
2022/07/21 07:14:13;;;;;;;;;;;;;;;;;;5158281;27;19915;-83
2022/07/21 07:16:39;;;;;;;;;;;;;;;;;;5156848;27;19923;-83
2022/07/21 07:19:04;;;;;;;;;;;;;;;;;;5157369;27;19915;-83
2022/07/21 07:21:29;;;;;;;;;;;;;;;;;;5161188;27;19982;-82
2022/07/21 07:23:55;;;;;;;;;;;;;;;;;;5161110;27;19915;-84
2022/07/21 07:26:21;;;;;;;;;;;;;;;;;;5157765;27;19972;-83
2022/07/21 07:28:47;;;;;;;;;;;;;;;;;;5157183;27;19915;-83
2022/07/21 07:31:12;;;;;;;;;;;;;;;;;;5158039;27;19958;-83
2022/07/21 07:33:37;;;;;;;;;;;;;;;;;;5156948;27;19915;-83
2022/07/21 07:36:03;;;;;;;;;;;;;;;;;;5155595;27;19922;-84
2022/07/21 07:38:28;;;;;;;;;;;;;;;;;;5138393;27;19982;-84
2022/07/21 07:40:54;;;;;;;;;;;;;;;;;;5157118;27;19938;-83
2022/07/21 07:43:19;;;;;;;;;;;;;;;;;;5166952;27;19915;-84
2022/07/21 07:45:44;;;;;;;;;;;;;;;;;;5157981;27;19965;-84
2022/07/21 07:48:10;;;;;;;;;;;;;;;;;;5156951;27;19915;-83
2022/07/21 07:50:35;;;;;;;;;;;;;;;;;;5157526;27;19995;-83
2022/07/21 07:53:00;;;;;;;;;;;;;;;;;;5156664;27;20351;-82
2022/07/21 07:55:26;;;;;;;;;;;;;;;;;;5157271;27;19915;-83
2022/07/21 07:57:52;;;;;;;;;;;;;;;;;;5160959;27;19949;-83
2022/07/21 08:00:17;;;;;;;;;;;;;;;;;;5160433;27;19950;-83
2022/07/21 08:02:43;;;;;;;;;;;;;;;;;;5160290;27;20395;-82
2022/07/21 08:05:08;;;;;;;;;;;;;;;;;;5163814;27;19966;-82
2022/07/21 08:07:34;;;;;;;;;;;;;;;;;;5160548;27;19960;-80
2022/07/21 08:10:00;;;;;;;;;;;;;;;;;;5160713;27;20256;-83
2022/07/21 08:12:25;;;;;;;;;;;;;;;;;;5159267;27;19915;-81
2022/07/21 08:14:51;;;;;;;;;;;;;;;;;;5160909;27;19915;-84
2022/07/21 08:17:16;;;;;;;;;;;;;;;;;;5146101;27;19954;-83
2022/07/21 08:19:42;;;;;;;;;;;;;;;;;;5161720;27;19968;-84
2022/07/21 08:22:07;;;;;;;;;;;;;;;;;;5161559;27;20405;-84
2022/07/21 08:24:33;;;;;;;;;;;;;;;;;;5164412;27;19915;-85
2022/07/21 08:26:58;;;;;;;;;;;;;;;;;;5167124;27;19915;-84
2022/07/21 08:29:23;;;;;;;;;;;;;;;;;;5162985;27;19921;-84
2022/07/21 08:31:50;;;;;;;;;;;;;;;;;;5162582;27;19915;-84
2022/07/21 08:34:16;;;;;;;;;;;;;;;;;;5161310;27;19919;-83
2022/07/21 08:36:41;;;;;;;;;;;;;;;;;;5160266;27;20264;-83
2022/07/21 08:39:08;;;;;;;;;;;;;;;;;;5159576;27;19915;-83
2022/07/21 08:41:34;;;;;;;;;;;;;;;;;;5162550;27;20364;-84
2022/07/21 08:44:05;;;;;;;;;;;;;;;;;;5160683;27;19939;-84
2022/07/21 08:46:30;;;;;;;;;;;;;;;;;;5170060;27;19918;-82
2022/07/21 08:48:57;;;;;;;;;;;;;;;;;;5159940;27;19915;-84
2022/07/21 08:51:22;;;;;;;;;;;;;;;;;;5161765;27;20005;-85
2022/07/21 08:53:48;;;;;;;;;;;;;;;;;;5160082;27;19973;-85
2022/07/21 08:56:13;;;;;;;;;;;;;;;;;;5163097;27;19949;-84
2022/07/21 08:58:39;;;;;;;;;;;;;;;;;;5161548;27;19947;-84
2022/07/21 09:01:04;;;;;;;;;;;;;;;;;;5163552;27;19937;-84
2022/07/21 09:03:30;;;;;;;;;;;;;;;;;;5164929;27;19922;-84
2022/07/21 09:05:58;;;;;;;;;;;;;;;;;;5167379;27;19974;-83
2022/07/21 09:08:31;;;;;;;;;;;;;;;;;;5164767;27;19930;-86
2022/07/21 09:11:15;;;;;;;;;;;;;;;;;;5160641;27;19915;-82
2022/07/21 09:13:41;;;;;;;;;;;;;;;;;;5162082;27;19915;-82
2022/07/21 09:16:06;;;;;;;;;;;;;;;;;;5161409;27;19937;-84
2022/07/21 09:18:32;;;;;;;;;;;;;;;;;;5162261;27;19911;-84
2022/07/21 09:20:58;;;;;;;;;;;;;;;;;;5160564;27;19942;-85
2022/07/21 09:23:24;;;;;;;;;;;;;;;;;;5161477;27;20230;-85
2022/07/21 09:25:51;;;;;;;;;;;;;;;;;;5160234;27;19939;-84
2022/07/21 09:28:16;;;;;;;;;;;;;;;;;;5167869;27;19921;-82
2022/07/21 09:30:48;;;;;;;;;;;;;;;;;;5163614;27;19978;-83
2022/07/21 09:33:25;;;;;;;;;;;;;;;;;;5159583;27;19915;-85
2022/07/21 09:35:54;;;;;;;;;;;;;;;;;;5158453;27;19923;-84
2022/07/21 09:38:21;;;;;;;;;;;;;;;;;;5159587;27;19915;-84
2022/07/21 09:40:47;;;;;;;;;;;;;;;;;;5159779;27;20341;-85
2022/07/21 09:43:16;;;;;;;;;;;;;;;;;;5161415;27;19915;-84
2022/07/21 09:45:42;;;;;;;;;;;;;;;;;;5160159;27;19964;-84
2022/07/21 09:48:08;;;;;;;;;;;;;;;;;;5160604;27;20327;-84
2022/07/21 09:50:33;;;;;;;;;;;;;;;;;;5171133;27;19919;-85
2022/07/21 09:52:59;;;;;;;;;;;;;;;;;;5163135;27;20014;-84
2022/07/21 09:55:25;;;;;;;;;;;;;;;;;;5160991;27;19983;-84
2022/07/21 09:57:50;;;;;;;;;;;;;;;;;;5161041;27;19964;-84
2022/07/21 10:00:16;;;;;;;;;;;;;;;;;;5160003;27;19915;-84
2022/07/21 10:02:42;;;;;;;;;;;;;;;;;;5159564;27;19915;-84
2022/07/21 10:05:10;;;;;;;;;;;;;;;;;;5160005;27;19915;-83
2022/07/21 10:07:36;;;;;;;;;;;;;;;;;;5142253;27;19915;-85
2022/07/21 10:10:01;;;;;;;;;;;;;;;;;;5160850;27;19915;-85
2022/07/21 10:12:27;;;;;;;;;;;;;;;;;;5162246;27;20010;-86
2022/07/21 10:14:52;;;;;;;;;;;;;;;;;;5156191;27;19921;-85
2022/07/21 10:17:18;;;;;;;;;;;;;;;;;;5157874;27;19923;-84
2022/07/21 10:20:03;;;;;;;;;;;;;;;;;;5154939;27;19918;-85
2022/07/21 10:22:44;;;;;;;;;;;;;;;;;;5156882;27;19915;-83
2022/07/21 10:25:10;;;;;;;;;;;;;;;;;;5157517;27;19922;-84
2022/07/21 10:27:35;;;;;;;;;;;;;;;;;;5155516;27;20294;-83
2022/07/21 10:30:01;;;;;;;;;;;;;;;;;;5155139;27;20387;-85
2022/07/21 10:32:37;;;;;;;;;;;;;;;;;;5149855;27;19907;-85
2022/07/21 10:35:20;;;;;;;;;;;;;;;;;;5156674;27;20332;-84
2022/07/21 10:37:46;;;;;;;;;;;;;;;;;;5156949;27;19915;-84
2022/07/21 10:40:20;;;;;;;;;;;;;;;;;;5157288;27;19922;-83
2022/07/21 10:43:06;;;;;;;;;;;;;;;;;;5156781;27;19915;-82
2022/07/21 10:45:32;;;;;;;;;;;;;;;;;;5155897;27;19923;-84
2022/07/21 10:47:57;;;;;;;;;;;;;;;;;;5156170;27;19927;-93
2022/07/21 10:50:29;;;;;;;;;;;;;;;;;;5155623;27;19979;-84
2022/07/21 10:53:04;;;;;;;;;;;;;;;;;;5161160;27;19919;-83
2022/07/21 10:55:30;;;;;;;;;;;;;;;;;;5160093;27;19915;-88
2022/07/21 10:58:10;;;;;;;;;;;;;;;;;;5156415;27;19922;-87
2022/07/21 11:00:36;;;;;;;;;;;;;;;;;;5154949;27;19915;-88
2022/07/21 11:03:02;;;;;;;;;;;;;;;;;;5155015;27;19972;-85
2022/07/21 11:05:28;;;;;;;;;;;;;;;;;;5155826;27;19915;-88
2022/07/21 11:08:13;;;;;;;;;;;;;;;;;;5156702;27;19914;-85
2022/07/21 11:10:49;;;;;;;;;;;;;;;;;;5155617;27;20359;-85
2022/07/21 11:13:14;;;;;;;;;;;;;;;;;;5160231;27;19911;-86
2022/07/21 11:15:43;;;;;;;;;;;;;;;;;;5164107;27;19967;-85
2022/07/21 11:18:08;;;;;;;;;;;;;;;;;;5160304;27;19911;-86
2022/07/21 11:20:34;;;;;;;;;;;;;;;;;;5158195;27;20364;-83
2022/07/21 11:23:02;;;;;;;;;;;;;;;;;;5157439;27;19918;-85
2022/07/21 11:25:33;;;;;;;;;;;;;;;;;;5155416;27;19915;-85
2022/07/21 11:27:58;;;;;;;;;;;;;;;;;;5155994;27;20030;-87
2022/07/21 11:30:23;;;;;;;;;;;;;;;;;;5155889;27;19979;-87
2022/07/21 11:32:49;;;;;;;;;;;;;;;;;;5160273;27;19946;-86
2022/07/21 11:35:17;;;;;;;;;;;;;;;;;;5169618;27;19919;-84
2022/07/21 11:37:43;;;;;;;;;;;;;;;;;;5161144;27;19915;-85
2022/07/21 11:40:13;;;;;;;;;;;;;;;;;;5158942;27;19915;-86
2022/07/21 11:42:38;;;;;;;;;;;;;;;;;;5158424;27;20005;-86
2022/07/21 11:45:04;;;;;;;;;;;;;;;;;;5158795;27;19965;-86
2022/07/21 11:47:29;;;;;;;;;;;;;;;;;;5158577;27;19922;-85
2022/07/21 11:49:55;;;;;;;;;;;;;;;;;;5160076;27;19954;-84
2022/07/21 11:52:25;;;;;;;;;;;;;;;;;;5158310;27;19965;-86
2022/07/21 11:54:51;;;;;;;;;;;;;;;;;;5159793;27;20063;-84
2022/07/21 11:57:16;;;;;;;;;;;;;;;;;;5169546;27;19920;-85
2022/07/21 11:59:42;;;;;;;;;;;;;;;;;;5161091;27;19911;-85
2022/07/21 12:02:07;;;;;;;;;;;;;;;;;;5159441;27;19965;-85
2022/07/21 12:04:36;;;;;;;;;;;;;;;;;;5159785;27;19915;-84
2022/07/21 12:07:02;;;;;;;;;;;;;;;;;;5159644;27;19918;-85
2022/07/21 12:09:27;;;;;;;;;;;;;;;;;;5158859;27;19927;-82
2022/07/21 12:11:53;;;;;;;;;;;;;;;;;;5158813;27;20315;-88
2022/07/21 12:14:18;;;;;;;;;;;;;;;;;;5158813;27;19971;-87
2022/07/21 12:16:50;;;;;;;;;;;;;;;;;;5167365;27;20403;-86
2022/07/21 12:19:15;;;;;;;;;;;;;;;;;;5164392;27;19919;-86
2022/07/21 12:21:47;;;;;;;;;;;;;;;;;;5158071;27;20002;-87
2022/07/21 12:24:13;;;;;;;;;;;;;;;;;;5158940;27;19946;-86
2022/07/21 12:26:38;;;;;;;;;;;;;;;;;;5158692;27;19957;-87
2022/07/21 12:29:03;;;;;;;;;;;;;;;;;;5158722;27;20337;-87
2022/07/21 12:31:29;;;;;;;;;;;;;;;;;;5157314;27;19944;-86
2022/07/21 12:33:58;;;;;;;;;;;;;;;;;;5157470;27;19964;-86
2022/07/21 12:36:23;;;;;;;;;;;;;;;;;;5159028;27;20393;-85
2022/07/21 12:38:49;;;;;;;;;;;;;;;;;;5154669;27;20009;-85
2022/07/21 12:41:18;;;;;;;;;;;;;;;;;;5162571;27;19915;-88
2022/07/21 12:43:52;;;;;;;;;;;;;;;;;;5157227;27;20320;-88
2022/07/21 12:46:19;;;;;;;;;;;;;;;;;;5158301;27;19915;-87
2022/07/21 12:48:44;;;;;;;;;;;;;;;;;;5158206;27;20320;-85
2022/07/21 12:51:11;;;;;;;;;;;;;;;;;;5158845;27;19915;-85
2022/07/21 12:53:46;;;;;;;;;;;;;;;;;;5158328;27;19919;-91
2022/07/21 12:56:12;;;;;;;;;;;;;;;;;;5159036;27;19972;-86
2022/07/21 12:58:38;;;;;;;;;;;;;;;;;;5165158;27;19923;-86
2022/07/21 13:01:03;;;;;;;;;;;;;;;;;;5164309;27;19923;-85
2022/07/21 13:03:29;;;;;;;;;;;;;;;;;;5157168;27;19971;-88
2022/07/21 13:05:57;;;;;;;;;;;;;;;;;;5158541;27;20001;-85
2022/07/21 13:08:23;;;;;;;;;;;;;;;;;;5156842;27;19915;-88
2022/07/21 13:10:48;;;;;;;;;;;;;;;;;;5158143;27;20248;-87
2022/07/21 13:13:13;;;;;;;;;;;;;;;;;;5156941;27;19918;-85
2022/07/21 13:15:39;;;;;;;;;;;;;;;;;;5157511;27;20252;-84
2022/07/21 13:18:04;;;;;;;;;;;;;;;;;;5158264;27;20005;-84
2022/07/21 13:20:29;;;;;;;;;;;;;;;;;;5167066;27;19915;-85
2022/07/21 13:22:55;;;;;;;;;;;;;;;;;;5157731;27;19919;-86
2022/07/21 13:25:20;;;;;;;;;;;;;;;;;;5157851;27;19911;-85
2022/07/21 13:27:45;;;;;;;;;;;;;;;;;;5157323;27;19936;-85
2022/07/21 13:30:11;;;;;;;;;;;;;;;;;;5157373;27;19915;-84
2022/07/21 13:32:36;;;;;;;;;;;;;;;;;;5157528;27;20304;-87
2022/07/21 13:35:03;;;;;;;;;;;;;;;;;;5156459;27;20338;-85
2022/07/21 13:37:28;;;;;;;;;;;;;;;;;;5157389;27;19915;-87
2022/07/21 13:39:53;;;;;;;;;;;;;;;;;;5162676;27;19979;-85
2022/07/21 13:42:19;;;;;;;;;;;;;;;;;;5164676;27;19919;-85
2022/07/21 13:44:44;;;;;;;;;;;;;;;;;;5156061;27;20023;-85
2022/07/21 13:47:09;;;;;;;;;;;;;;;;;;5157457;27;19922;-85
2022/07/21 13:49:35;;;;;;;;;;;;;;;;;;5155988;27;20395;-86
2022/07/21 13:52:00;;;;;;;;;;;;;;;;;;5157113;27;19923;-89
2022/07/21 13:54:25;;;;;;;;;;;;;;;;;;5156015;27;20005;-87
2022/07/21 13:56:51;;;;;;;;;;;;;;;;;;5157107;27;19947;-85
2022/07/21 13:59:16;;;;;;;;;;;;;;;;;;5155976;27;20236;-86
2022/07/21 14:01:42;;;;;;;;;;;;;;;;;;5165974;27;19927;-86
2022/07/21 14:04:08;;;;;;;;;;;;;;;;;;5157480;27;19917;-86
2022/07/21 14:06:33;;;;;;;;;;;;;;;;;;5155351;27;19915;-87
2022/07/21 14:09:01;;;;;;;;;;;;;;;;;;5156881;27;19919;-87
2022/07/21 14:11:29;;;;;;;;;;;;;;;;;;5138728;27;20023;-87
2022/07/21 14:13:55;;;;;;;;;;;;;;;;;;5156621;27;20313;-87
2022/07/21 14:16:20;;;;;;;;;;;;;;;;;;5157111;27;19971;-88
2022/07/21 14:18:45;;;;;;;;;;;;;;;;;;5156745;27;19919;-85
2022/07/21 14:21:11;;;;;;;;;;;;;;;;;;5158477;27;19924;-86
2022/07/21 14:23:38;;;;;;;;;;;;;;;;;;5165914;27;19954;-84
2022/07/21 14:26:04;;;;;;;;;;;;;;;;;;5156549;27;19922;-87
2022/07/21 14:28:29;;;;;;;;;;;;;;;;;;5156377;27;19915;-85
2022/07/21 14:30:55;;;;;;;;;;;;;;;;;;5155191;27;19971;-87
2022/07/21 14:33:25;;;;;;;;;;;;;;;;;;5156466;27;19915;-86
2022/07/21 14:35:51;;;;;;;;;;;;;;;;;;5156428;27;19935;-86
2022/07/21 14:38:17;;;;;;;;;;;;;;;;;;5156223;27;19922;-84
2022/07/21 14:40:42;;;;;;;;;;;;;;;;;;5156070;27;19922;-88
2022/07/21 14:43:08;;;;;;;;;;;;;;;;;;5164958;27;19907;-85
2022/07/21 14:45:33;;;;;;;;;;;;;;;;;;5159675;27;20044;-88
2022/07/21 14:47:59;;;;;;;;;;;;;;;;;;5156381;27;19915;-86
2022/07/21 14:50:24;;;;;;;;;;;;;;;;;;5154884;27;19926;-86
2022/07/21 14:52:50;;;;;;;;;;;;;;;;;;5155014;27;20399;-84
2022/07/21 14:55:15;;;;;;;;;;;;;;;;;;5137726;27;20341;-85
2022/07/21 14:57:40;;;;;;;;;;;;;;;;;;5154945;27;19923;-88
2022/07/21 15:00:07;;;;;;;;;;;;;;;;;;5156379;27;19915;-89
2022/07/21 15:02:33;;;;;;;;;;;;;;;;;;5156966;27;20264;-88
2022/07/21 15:04:58;;;;;;;;;;;;;;;;;;5168850;27;19946;-86
2022/07/21 15:07:23;;;;;;;;;;;;;;;;;;5160954;27;20009;-87
2022/07/21 15:09:49;;;;;;;;;;;;;;;;;;5160564;27;19958;-88
2022/07/21 15:12:14;;;;;;;;;;;;;;;;;;5158974;27;19915;-88
2022/07/21 15:14:39;;;;;;;;;;;;;;;;;;5160320;27;19926;-85
2022/07/21 15:17:05;;;;;;;;;;;;;;;;;;5161159;27;19979;-84
2022/07/21 15:19:30;;;;;;;;;;;;;;;;;;5163897;27;19915;-87
2022/07/21 15:21:55;;;;;;;;;;;;;;;;;;5161565;27;20005;-86
2022/07/21 15:24:21;;;;;;;;;;;;;;;;;;5167991;27;19964;-85
2022/07/21 15:26:46;;;;;;;;;;;;;;;;;;5164556;27;19926;-85
2022/07/21 15:29:11;;;;;;;;;;;;;;;;;;5159425;27;19921;-86
2022/07/21 15:31:37;;;;;;;;;;;;;;;;;;5160142;27;19958;-87
2022/07/21 15:34:02;;;;;;;;;;;;;;;;;;5141313;27;20005;-86
2022/07/21 15:36:29;;;;;;;;;;;;;;;;;;5159863;27;19915;-87
2022/07/21 15:38:56;;;;;;;;;;;;;;;;;;5158582;27;19922;-86
2022/07/21 15:41:21;;;;;;;;;;;;;;;;;;5158387;27;19952;-88
2022/07/21 15:43:46;;;;;;;;;;;;;;;;;;5160472;27;19915;-87
2022/07/21 15:46:12;;;;;;;;;;;;;;;;;;5171108;27;19943;-87
2022/07/21 15:48:37;;;;;;;;;;;;;;;;;;5162990;27;19922;-86
2022/07/21 15:51:03;;;;;;;;;;;;;;;;;;5159750;27;20047;-87
2022/07/21 15:53:28;;;;;;;;;;;;;;;;;;5159478;27;19969;-86
2022/07/21 15:55:53;;;;;;;;;;;;;;;;;;5159363;27;19915;-87
2022/07/21 15:58:19;;;;;;;;;;;;;;;;;;5159740;27;19922;-86
2022/07/21 16:00:44;;;;;;;;;;;;;;;;;;5159748;27;20015;-87
2022/07/21 16:03:10;;;;;;;;;;;;;;;;;;5158191;27;19922;-87
2022/07/21 16:05:35;;;;;;;;;;;;;;;;;;5163766;27;19922;-87
2022/07/21 16:08:01;;;;;;;;;;;;;;;;;;5171882;27;19919;-87
2022/07/21 16:10:26;;;;;;;;;;;;;;;;;;5158999;27;19972;-87
2022/07/21 16:12:53;;;;;;;;;;;;;;;;;;5159521;27;19968;-88
2022/07/21 16:15:18;;;;;;;;;;;;;;;;;;5157884;27;19915;-86
2022/07/21 16:17:43;;;;;;;;;;;;;;;;;;5157521;27;20009;-86
2022/07/21 16:20:09;;;;;;;;;;;;;;;;;;5158256;27;20324;-88
2022/07/21 16:22:35;;;;;;;;;;;;;;;;;;5159123;27;20324;-86
2022/07/21 16:25:00;;;;;;;;;;;;;;;;;;5158641;27;19950;-88
2022/07/21 16:27:26;;;;;;;;;;;;;;;;;;5170433;27;19907;-86
2022/07/21 16:29:51;;;;;;;;;;;;;;;;;;5161603;27;19915;-87
2022/07/21 16:32:16;;;;;;;;;;;;;;;;;;5159039;27;20013;-84
2022/07/21 16:34:42;;;;;;;;;;;;;;;;;;5159154;27;20380;-87
2022/07/21 16:37:07;;;;;;;;;;;;;;;;;;5159194;27;19923;-87
2022/07/21 16:39:33;;;;;;;;;;;;;;;;;;5158617;27;19915;-85
2022/07/21 16:41:58;;;;;;;;;;;;;;;;;;5158817;27;19915;-85